Time;durP1;ratioP1;P1;durP2;ratioP2;P2;SDS_P1;SDS_P2;PMS_P1;PMS_P2;Temp;Humidity;BMP_temperature;BMP_pressure;BME280_temperature;BME280_humidity;BME280_pressure;Samples;Min_cycle;Max_cycle;Signal;HPM_P1;HPM_P2
2023/10/20 00:01:41;;;;;;;34.15;26.98;;;;;;;;;;5088739;28;20024;-85
2023/10/20 00:04:06;;;;;;;33.83;25.27;;;;;;;;;;5090825;28;20028;-85
2023/10/20 00:06:32;;;;;;;40.15;30.15;;;;;;;;;;5092211;28;20093;-85
2023/10/20 00:08:58;;;;;;;37.08;27.55;;;;;;;;;;5082998;28;20048;-85
2023/10/20 00:11:25;;;;;;;34.22;27.77;;;;;;;;;;5094998;28;20352;-85
2023/10/20 00:13:51;;;;;;;39.60;29.67;;;;;;;;;;5095558;28;20047;-85
2023/10/20 00:16:23;;;;;;;33.83;26.05;;;;;;;;;;5074925;28;20388;-85
2023/10/20 00:18:48;;;;;;;37.22;26.60;;;;;;;;;;5086247;28;20028;-85
2023/10/20 00:21:13;;;;;;;36.75;28.70;;;;;;;;;;5090615;28;20024;-85
2023/10/20 00:23:39;;;;;;;40.72;28.52;;;;;;;;;;5088623;28;20040;-85
2023/10/20 00:26:04;;;;;;;38.55;29.00;;;;;;;;;;5094640;28;20031;-83
2023/10/20 00:28:29;;;;;;;36.58;26.13;;;;;;;;;;5088025;28;20028;-85
2023/10/20 00:30:54;;;;;;;39.22;27.75;;;;;;;;;;5072349;28;20028;-85
2023/10/20 00:33:20;;;;;;;38.10;29.10;;;;;;;;;;5090270;28;20439;-85
2023/10/20 00:35:45;;;;;;;40.30;29.88;;;;;;;;;;5088134;28;20035;-85
2023/10/20 00:38:11;;;;;;;40.90;28.80;;;;;;;;;;5075266;28;20082;-85
2023/10/20 00:40:44;;;;;;;36.55;28.10;;;;;;;;;;5088502;28;20024;-85
2023/10/20 00:43:09;;;;;;;43.90;31.75;;;;;;;;;;5076918;28;20632;-84
2023/10/20 00:45:34;;;;;;;42.85;29.02;;;;;;;;;;5089860;28;20035;-85
2023/10/20 00:48:00;;;;;;;41.10;29.73;;;;;;;;;;5073332;28;20034;-85
2023/10/20 00:50:25;;;;;;;42.17;29.13;;;;;;;;;;5075470;28;20051;-84
2023/10/20 00:52:50;;;;;;;41.75;31.25;;;;;;;;;;5074014;28;20043;-85
2023/10/20 00:55:17;;;;;;;41.90;29.50;;;;;;;;;;5076576;28;20491;-85
2023/10/20 00:57:45;;;;;;;43.53;30.58;;;;;;;;;;5072731;28;20070;-84
2023/10/20 01:00:13;;;;;;;43.45;30.25;;;;;;;;;;5087924;28;20051;-85
2023/10/20 01:02:39;;;;;;;43.42;31.63;;;;;;;;;;5081474;28;20035;-85
2023/10/20 01:05:08;;;;;;;50.65;32.83;;;;;;;;;;5090642;28;20388;-85
2023/10/20 01:07:34;;;;;;;45.20;32.15;;;;;;;;;;5076789;28;20047;-86
2023/10/20 01:10:00;;;;;;;43.58;31.20;;;;;;;;;;5074480;28;20051;-85
2023/10/20 01:12:26;;;;;;;45.45;32.20;;;;;;;;;;5070273;28;20119;-85
2023/10/20 01:14:52;;;;;;;42.20;29.60;;;;;;;;;;5075448;28;20044;-85
2023/10/20 01:17:17;;;;;;;52.33;34.97;;;;;;;;;;5077216;28;20069;-85
2023/10/20 01:19:44;;;;;;;44.55;31.23;;;;;;;;;;5073489;28;20029;-86
2023/10/20 01:22:09;;;;;;;47.90;32.33;;;;;;;;;;5074765;28;20031;-86
2023/10/20 01:24:34;;;;;;;44.72;31.10;;;;;;;;;;5070746;28;20032;-83
2023/10/20 01:27:00;;;;;;;46.80;31.15;;;;;;;;;;5071410;28;20028;-83
2023/10/20 01:29:25;;;;;;;46.17;33.10;;;;;;;;;;5076289;28;20562;-83
2023/10/20 01:31:50;;;;;;;43.80;30.88;;;;;;;;;;5075336;28;20032;-83
2023/10/20 01:34:16;;;;;;;45.33;31.40;;;;;;;;;;5091834;28;20107;-83
2023/10/20 01:36:42;;;;;;;45.63;32.85;;;;;;;;;;5078002;28;20024;-84
2023/10/20 01:39:08;;;;;;;45.35;32.60;;;;;;;;;;5086972;28;20093;-83
2023/10/20 01:41:33;;;;;;;43.38;29.92;;;;;;;;;;5078738;28;20028;-83
2023/10/20 01:43:58;;;;;;;50.33;32.53;;;;;;;;;;5088563;28;20037;-83
2023/10/20 01:46:24;;;;;;;50.78;34.42;;;;;;;;;;5092259;28;20039;-82
2023/10/20 01:48:49;;;;;;;48.88;31.90;;;;;;;;;;5075169;28;20122;-82
2023/10/20 01:51:15;;;;;;;43.22;31.25;;;;;;;;;;5087639;28;20124;-82
2023/10/20 01:53:40;;;;;;;49.38;31.80;;;;;;;;;;5090849;28;20115;-83
2023/10/20 01:56:05;;;;;;;47.17;31.00;;;;;;;;;;5088202;28;20020;-83
2023/10/20 01:58:32;;;;;;;44.33;29.50;;;;;;;;;;5069457;28;20031;-82
2023/10/20 02:00:57;;;;;;;47.95;31.80;;;;;;;;;;5074257;28;20438;-83
2023/10/20 02:03:22;;;;;;;47.33;30.33;;;;;;;;;;5068112;28;20040;-83
2023/10/20 02:05:47;;;;;;;50.83;31.58;;;;;;;;;;5075953;28;20040;-83
2023/10/20 02:08:13;;;;;;;52.25;33.03;;;;;;;;;;5073496;28;20031;-83
2023/10/20 02:10:40;;;;;;;46.38;31.15;;;;;;;;;;5089537;28;20450;-83
2023/10/20 02:13:05;;;;;;;44.95;30.55;;;;;;;;;;5090918;28;20032;-83
2023/10/20 02:15:31;;;;;;;54.53;32.40;;;;;;;;;;5092190;28;20024;-83
2023/10/20 02:17:56;;;;;;;52.22;33.17;;;;;;;;;;5068305;28;20024;-83
2023/10/20 02:20:22;;;;;;;47.00;31.33;;;;;;;;;;5069277;28;20024;-83
2023/10/20 02:22:52;;;;;;;46.78;29.85;;;;;;;;;;5071678;28;20400;-83
2023/10/20 02:25:18;;;;;;;45.88;28.80;;;;;;;;;;5072387;28;20031;-82
2023/10/20 02:27:44;;;;;;;54.63;30.85;;;;;;;;;;5079470;28;20036;-83
2023/10/20 02:30:12;;;;;;;47.13;29.92;;;;;;;;;;5075166;28;20035;-83
2023/10/20 02:32:37;;;;;;;49.78;31.10;;;;;;;;;;5093630;28;20052;-84
2023/10/20 02:35:03;;;;;;;48.15;30.17;;;;;;;;;;5066653;28;20025;-84
2023/10/20 02:37:28;;;;;;;46.97;29.10;;;;;;;;;;5081541;28;20523;-83
2023/10/20 02:39:53;;;;;;;45.67;27.05;;;;;;;;;;5069896;28;20024;-84
2023/10/20 02:42:18;;;;;;;50.35;30.98;;;;;;;;;;5073596;28;20499;-82
2023/10/20 02:44:43;;;;;;;48.13;30.33;;;;;;;;;;5073610;28;20028;-82
2023/10/20 02:47:09;;;;;;;50.72;32.97;;;;;;;;;;5089809;28;20032;-83
2023/10/20 02:49:35;;;;;;;52.97;33.42;;;;;;;;;;5072279;28;20035;-83
2023/10/20 02:52:00;;;;;;;48.75;31.23;;;;;;;;;;5085202;28;20539;-83
2023/10/20 02:54:25;;;;;;;53.33;32.22;;;;;;;;;;5071305;28;20191;-84
2023/10/20 02:56:51;;;;;;;54.17;33.60;;;;;;;;;;5091726;28;20020;-83
2023/10/20 02:59:16;;;;;;;49.80;30.90;;;;;;;;;;5093690;28;20055;-83
2023/10/20 03:01:42;;;;;;;47.92;31.15;;;;;;;;;;5086487;28;20024;-84
2023/10/20 03:04:07;;;;;;;42.10;29.00;;;;;;;;;;5066600;28;20035;-84
2023/10/20 03:06:32;;;;;;;47.28;29.00;;;;;;;;;;5069982;28;20040;-84
2023/10/20 03:08:57;;;;;;;41.80;27.70;;;;;;;;;;5063589;28;20115;-84
2023/10/20 03:11:23;;;;;;;43.15;28.35;;;;;;;;;;5075380;28;20056;-83
2023/10/20 03:13:48;;;;;;;44.95;30.40;;;;;;;;;;5065727;28;20047;-83
2023/10/20 03:16:14;;;;;;;44.28;28.40;;;;;;;;;;5073654;28;20024;-84
2023/10/20 03:18:39;;;;;;;44.15;28.25;;;;;;;;;;5088603;28;20028;-83
2023/10/20 03:21:07;;;;;;;41.95;26.67;;;;;;;;;;5076164;28;20031;-83
2023/10/20 03:23:33;;;;;;;44.03;28.45;;;;;;;;;;5075256;28;20028;-83
2023/10/20 03:25:58;;;;;;;41.50;27.52;;;;;;;;;;5086831;28;20024;-84
2023/10/20 03:28:25;;;;;;;37.88;25.48;;;;;;;;;;5076256;28;20034;-83
2023/10/20 03:30:50;;;;;;;42.05;26.60;;;;;;;;;;5074510;28;20466;-83
2023/10/20 03:33:16;;;;;;;38.03;25.70;;;;;;;;;;5083007;28;20028;-84
2023/10/20 03:35:41;;;;;;;40.47;26.27;;;;;;;;;;5072809;28;20479;-84
2023/10/20 03:38:07;;;;;;;42.63;26.15;;;;;;;;;;5071685;28;20081;-84
2023/10/20 03:40:40;;;;;;;35.58;22.90;;;;;;;;;;5075568;28;20032;-84
2023/10/20 03:43:08;;;;;;;36.15;24.30;;;;;;;;;;5071595;28;20024;-84
2023/10/20 03:45:48;;;;;;;40.05;24.95;;;;;;;;;;5067850;28;20476;-83
2023/10/20 03:48:14;;;;;;;39.00;23.45;;;;;;;;;;5091863;28;20029;-83
2023/10/20 03:50:41;;;;;;;38.17;23.23;;;;;;;;;;5084618;28;20042;-83
2023/10/20 03:53:07;;;;;;;34.60;22.73;;;;;;;;;;5090793;28;20028;-84
2023/10/20 03:55:33;;;;;;;36.90;22.25;;;;;;;;;;5057325;28;20085;-86
2023/10/20 03:57:59;;;;;;;34.28;20.75;;;;;;;;;;5085302;28;20028;-84
2023/10/20 04:00:31;;;;;;;34.42;22.73;;;;;;;;;;5074369;28;20380;-84
2023/10/20 04:02:56;;;;;;;;;;;;;;;;;;5068517;28;20064;-85
2023/10/20 04:05:22;;;;;;;31.60;20.55;;;;;;;;;;5081036;28;19973;-84
2023/10/20 04:07:47;;;;;;;33.72;21.67;;;;;;;;;;5090727;28;20032;-84
2023/10/20 04:10:12;;;;;;;34.58;22.38;;;;;;;;;;5074260;28;20039;-84
2023/10/20 04:12:41;;;;;;;34.08;21.63;;;;;;;;;;5088437;28;20036;-85
2023/10/20 04:15:14;;;;;;;35.15;22.63;;;;;;;;;;5089245;28;20036;-84
2023/10/20 04:17:41;;;;;;;32.72;20.88;;;;;;;;;;5073814;28;20025;-84
2023/10/20 04:20:15;;;;;;;30.63;20.90;;;;;;;;;;5078454;28;20727;-83
2023/10/20 04:22:42;;;;;;;37.25;22.90;;;;;;;;;;5094791;28;20407;-84
2023/10/20 04:25:12;;;;;;;34.00;22.67;;;;;;;;;;5093100;28;20039;-85
2023/10/20 04:27:48;;;;;;;30.30;19.08;;;;;;;;;;5072949;28;20036;-83
2023/10/20 05:07:56;;;;;;;30.67;20.13;;;;;;;;;;5077121;28;20028;-83
2023/10/20 05:10:21;;;;;;;33.95;23.45;;;;;;;;;;5087464;28;20061;-84
2023/10/20 05:12:47;;;;;;;30.33;20.23;;;;;;;;;;5088315;28;20027;-85
2023/10/20 05:15:13;;;;;;;30.55;20.88;;;;;;;;;;5085327;28;20024;-83
2023/10/20 05:17:38;;;;;;;27.45;19.33;;;;;;;;;;5088695;28;20028;-83
2023/10/20 05:20:05;;;;;;;25.02;17.30;;;;;;;;;;5088474;28;20027;-83
2023/10/20 05:22:31;;;;;;;25.63;17.23;;;;;;;;;;5086146;28;20040;-83
2023/10/20 05:24:56;;;;;;;24.80;16.92;;;;;;;;;;5090248;28;20032;-83
2023/10/20 05:27:21;;;;;;;26.20;16.83;;;;;;;;;;5085155;28;20059;-84
2023/10/20 05:29:46;;;;;;;23.48;16.63;;;;;;;;;;5086618;28;20084;-83
2023/10/20 05:32:12;;;;;;;24.45;15.93;;;;;;;;;;5084893;28;20114;-84
2023/10/20 05:34:37;;;;;;;25.23;16.83;;;;;;;;;;5087340;28;20079;-83
2023/10/20 05:37:02;;;;;;;24.10;17.58;;;;;;;;;;5087113;28;20079;-83
2023/10/20 05:39:27;;;;;;;24.52;16.88;;;;;;;;;;5082643;28;20041;-84
2023/10/20 05:41:53;;;;;;;20.48;15.25;;;;;;;;;;5087615;28;20031;-84
2023/10/20 05:44:23;;;;;;;20.55;14.50;;;;;;;;;;5084515;28;20454;-84
2023/10/20 05:46:49;;;;;;;21.77;14.45;;;;;;;;;;5088055;28;20036;-84
2023/10/20 05:49:15;;;;;;;19.63;13.48;;;;;;;;;;5086588;28;20036;-83
2023/10/20 05:51:40;;;;;;;24.88;16.55;;;;;;;;;;5054963;28;20123;-84
2023/10/20 05:54:05;;;;;;;19.45;14.27;;;;;;;;;;5061440;28;20511;-84
2023/10/20 05:56:30;;;;;;;23.45;14.52;;;;;;;;;;5073876;28;20051;-84
2023/10/20 05:58:55;;;;;;;24.48;14.10;;;;;;;;;;5082446;28;20032;-84
2023/10/20 06:01:21;;;;;;;21.27;14.40;;;;;;;;;;5085043;28;20028;-84
2023/10/20 06:03:46;;;;;;;20.92;14.43;;;;;;;;;;5073751;28;20101;-83
2023/10/20 06:06:11;;;;;;;23.77;15.13;;;;;;;;;;5075119;28;20032;-83
2023/10/20 06:08:36;;;;;;;20.17;13.95;;;;;;;;;;5077766;28;20043;-84
2023/10/20 06:11:02;;;;;;;20.40;13.95;;;;;;;;;;5084177;28;20046;-85
2023/10/20 06:13:28;;;;;;;22.25;15.05;;;;;;;;;;5075482;28;20480;-85
2023/10/20 06:15:53;;;;;;;18.30;11.95;;;;;;;;;;5092786;28;20042;-83
2023/10/20 06:18:19;;;;;;;20.35;14.75;;;;;;;;;;5087356;28;20032;-83
2023/10/20 06:20:44;;;;;;;22.70;15.70;;;;;;;;;;5083279;28;20032;-84
2023/10/20 06:23:09;;;;;;;25.95;18.33;;;;;;;;;;5081694;28;20055;-84
2023/10/20 06:25:35;;;;;;;41.17;28.17;;;;;;;;;;5077878;28;20062;-84
2023/10/20 06:28:01;;;;;;;24.50;17.50;;;;;;;;;;5086767;28;20115;-84
2023/10/20 06:30:26;;;;;;;24.63;17.52;;;;;;;;;;5088405;28;20063;-85
2023/10/20 06:33:16;;;;;;;24.40;15.70;;;;;;;;;;5086373;28;20408;-84
2023/10/20 06:35:51;;;;;;;22.52;15.35;;;;;;;;;;5085291;28;20024;-84
2023/10/20 06:38:45;;;;;;;23.25;14.95;;;;;;;;;;5087031;28;20025;-84
2023/10/20 06:41:10;;;;;;;20.25;14.95;;;;;;;;;;5083245;28;20028;-84
2023/10/20 06:43:35;;;;;;;21.23;14.73;;;;;;;;;;5090641;28;20020;-84
2023/10/20 06:46:01;;;;;;;25.33;16.33;;;;;;;;;;5087837;28;20031;-85
2023/10/20 06:48:27;;;;;;;19.33;14.00;;;;;;;;;;5088412;28;20037;-85
2023/10/20 06:50:53;;;;;;;22.50;15.43;;;;;;;;;;5076171;28;20028;-85
2023/10/20 06:53:18;;;;;;;22.77;15.23;;;;;;;;;;5081596;28;20488;-84
2023/10/20 06:55:44;;;;;;;25.73;18.15;;;;;;;;;;5075453;28;20111;-84
2023/10/20 06:58:09;;;;;;;28.30;19.27;;;;;;;;;;5086326;28;20019;-84
2023/10/20 07:00:37;;;;;;;26.40;18.75;;;;;;;;;;5084461;28;20025;-84
2023/10/20 07:03:03;;;;;;;27.08;18.58;;;;;;;;;;5079607;28;20032;-84
2023/10/20 07:05:28;;;;;;;24.35;17.35;;;;;;;;;;5080882;28;20021;-84
2023/10/20 07:07:53;;;;;;;24.63;17.60;;;;;;;;;;5077942;28;20426;-84
2023/10/20 07:10:21;;;;;;;24.10;16.50;;;;;;;;;;5065548;28;20476;-85
2023/10/20 07:12:46;;;;;;;23.27;17.02;;;;;;;;;;5086089;28;20044;-85
2023/10/20 07:15:12;;;;;;;27.73;18.05;;;;;;;;;;5085446;28;20036;-84
2023/10/20 07:17:37;;;;;;;26.10;19.20;;;;;;;;;;5083638;28;20028;-85
2023/10/20 07:20:04;;;;;;;29.08;17.98;;;;;;;;;;5087140;28;20050;-84
2023/10/20 07:22:30;;;;;;;26.98;18.52;;;;;;;;;;5085201;28;20087;-84
2023/10/20 07:24:55;;;;;;;25.15;17.27;;;;;;;;;;5090579;28;20483;-84
2023/10/20 07:27:22;;;;;;;25.85;17.77;;;;;;;;;;5071914;28;20024;-85
2023/10/20 07:29:47;;;;;;;26.25;17.75;;;;;;;;;;5088287;28;20111;-84
2023/10/20 07:32:12;;;;;;;25.17;17.10;;;;;;;;;;5071161;28;20039;-84
2023/10/20 07:34:37;;;;;;;23.63;17.02;;;;;;;;;;5090692;28;20032;-84
2023/10/20 07:37:02;;;;;;;24.00;16.98;;;;;;;;;;5080644;28;20099;-84
2023/10/20 07:39:28;;;;;;;26.55;18.27;;;;;;;;;;5086152;28;20162;-84
2023/10/20 07:41:54;;;;;;;25.67;18.27;;;;;;;;;;5067460;28;20032;-84
2023/10/20 07:44:19;;;;;;;26.50;17.60;;;;;;;;;;5074103;28;20054;-86
2023/10/20 07:46:44;;;;;;;26.17;17.45;;;;;;;;;;5081715;28;20054;-85
2023/10/20 07:49:12;;;;;;;25.75;16.13;;;;;;;;;;5063833;28;20037;-84
2023/10/20 07:51:39;;;;;;;27.65;17.98;;;;;;;;;;5089993;28;20035;-84
2023/10/20 07:54:04;;;;;;;27.63;19.23;;;;;;;;;;5084022;28;20100;-84
2023/10/20 07:56:30;;;;;;;30.50;20.60;;;;;;;;;;5072493;28;20036;-84
2023/10/20 07:58:56;;;;;;;24.00;16.00;;;;;;;;;;5081813;28;20024;-85
2023/10/20 08:01:21;;;;;;;24.73;17.15;;;;;;;;;;5087703;28;20028;-83
2023/10/20 08:03:47;;;;;;;26.65;17.48;;;;;;;;;;5090218;28;20050;-87
2023/10/20 08:06:13;;;;;;;25.27;16.38;;;;;;;;;;5089576;28;20040;-83
2023/10/20 08:08:38;;;;;;;25.17;17.88;;;;;;;;;;5092104;28;20024;-84
2023/10/20 08:11:04;;;;;;;24.92;17.02;;;;;;;;;;5090733;28;20446;-86
2023/10/20 08:13:29;;;;;;;24.00;16.27;;;;;;;;;;5074513;28;20032;-84
2023/10/20 08:15:54;;;;;;;23.23;16.58;;;;;;;;;;5085548;28;20627;-84
2023/10/20 08:18:19;;;;;;;28.05;19.25;;;;;;;;;;5069151;28;20415;-84
2023/10/20 08:20:45;;;;;;;27.55;18.70;;;;;;;;;;5089654;28;20476;-84
2023/10/20 08:23:10;;;;;;;25.85;17.17;;;;;;;;;;5089528;28;20070;-85
2023/10/20 08:25:38;;;;;;;25.45;17.05;;;;;;;;;;5088508;28;20029;-84
2023/10/20 08:28:04;;;;;;;25.58;16.80;;;;;;;;;;5089536;28;20024;-84
2023/10/20 08:30:30;;;;;;;26.63;17.27;;;;;;;;;;5083956;28;20076;-85
2023/10/20 08:32:55;;;;;;;26.63;16.63;;;;;;;;;;5092032;28;20119;-84
2023/10/20 08:35:21;;;;;;;26.30;15.93;;;;;;;;;;5077591;28;20036;-84
2023/10/20 08:37:46;;;;;;;27.25;16.40;;;;;;;;;;5089532;28;20476;-84
2023/10/20 08:40:12;;;;;;;26.83;16.88;;;;;;;;;;5082983;28;20028;-85
2023/10/20 08:42:40;;;;;;;28.05;17.90;;;;;;;;;;5089446;28;20032;-84
2023/10/20 08:45:11;;;;;;;29.75;17.23;;;;;;;;;;5090160;28;20028;-84
2023/10/20 08:47:37;;;;;;;29.90;17.23;;;;;;;;;;5095375;28;20028;-84
2023/10/20 08:50:05;;;;;;;28.20;16.45;;;;;;;;;;5077089;28;20036;-84
2023/10/20 08:52:30;;;;;;;29.20;17.42;;;;;;;;;;5087667;28;20046;-84
2023/10/20 08:54:56;;;;;;;31.35;18.00;;;;;;;;;;5092366;28;20107;-84
2023/10/20 08:57:21;;;;;;;32.28;19.23;;;;;;;;;;5089983;28;20028;-85
2023/10/20 08:59:52;;;;;;;30.42;18.33;;;;;;;;;;5089929;28;20461;-86
2023/10/20 09:02:18;;;;;;;35.30;19.38;;;;;;;;;;5092490;28;20020;-85
2023/10/20 09:04:43;;;;;;;35.70;19.95;;;;;;;;;;5085069;28;20089;-84
2023/10/20 09:07:14;;;;;;;33.15;19.13;;;;;;;;;;5067040;28;20071;-84
2023/10/20 09:09:39;;;;;;;35.15;20.58;;;;;;;;;;5093471;28;20039;-85
2023/10/20 09:12:05;;;;;;;31.83;19.35;;;;;;;;;;5074610;28;20066;-86
2023/10/20 09:14:31;;;;;;;34.22;19.70;;;;;;;;;;5082568;28;20054;-87
2023/10/20 09:16:59;;;;;;;34.28;19.73;;;;;;;;;;5094424;28;20032;-85
2023/10/20 09:19:24;;;;;;;38.50;20.58;;;;;;;;;;5091273;28;20503;-86
2023/10/20 09:21:50;;;;;;;37.05;19.85;;;;;;;;;;5075797;28;20028;-85
2023/10/20 09:24:17;;;;;;;37.65;20.63;;;;;;;;;;5085188;28;20538;-84
2023/10/20 09:26:44;;;;;;;35.65;20.02;;;;;;;;;;5075094;28;20036;-85
2023/10/20 09:29:10;;;;;;;35.67;20.27;;;;;;;;;;5093098;28;20032;-85
2023/10/20 09:31:35;;;;;;;36.35;20.48;;;;;;;;;;5094205;28;20123;-85
2023/10/20 09:34:02;;;;;;;33.60;20.17;;;;;;;;;;5082606;28;20095;-85
2023/10/20 09:36:31;;;;;;;41.20;23.25;;;;;;;;;;5087388;28;20494;-85
2023/10/20 09:38:57;;;;;;;38.45;19.38;;;;;;;;;;5064339;28;20457;-84
2023/10/20 09:41:27;;;;;;;37.08;21.35;;;;;;;;;;5071618;28;20020;-85
2023/10/20 09:43:53;;;;;;;32.85;19.33;;;;;;;;;;5094634;28;20119;-85
2023/10/20 09:46:31;;;;;;;34.85;18.83;;;;;;;;;;5065819;28;20400;-85
2023/10/20 09:48:59;;;;;;;38.45;21.50;;;;;;;;;;5087168;28;20036;-85
2023/10/20 09:51:25;;;;;;;35.22;19.40;;;;;;;;;;5095235;28;20085;-84
2023/10/20 09:53:50;;;;;;;35.60;20.20;;;;;;;;;;5076161;28;20417;-85
2023/10/20 09:56:17;;;;;;;34.80;20.05;;;;;;;;;;5074224;28;20025;-85
2023/10/20 09:58:42;;;;;;;37.63;20.15;;;;;;;;;;5091851;28;20063;-84
2023/10/20 10:01:07;;;;;;;32.58;18.30;;;;;;;;;;5073504;28;20051;-85
2023/10/20 10:03:42;;;;;;;36.83;21.10;;;;;;;;;;5093724;28;20032;-87
2023/10/20 10:06:13;;;;;;;36.13;21.00;;;;;;;;;;5069881;28;20032;-84
2023/10/20 10:08:43;;;;;;;37.97;21.90;;;;;;;;;;5093637;28;20435;-85
2023/10/20 10:11:18;;;;;;;33.97;21.13;;;;;;;;;;5081854;28;20035;-85
2023/10/20 10:13:44;;;;;;;33.65;20.95;;;;;;;;;;5085602;28;20036;-85
2023/10/20 10:16:10;;;;;;;36.50;21.17;;;;;;;;;;5090704;28;20025;-83
2023/10/20 10:18:43;;;;;;;37.05;21.40;;;;;;;;;;5067571;28;20037;-86
2023/10/20 10:21:08;;;;;;;36.42;20.70;;;;;;;;;;5086752;28;21540;-85
2023/10/20 10:23:34;;;;;;;38.38;22.20;;;;;;;;;;5092698;28;20073;-84
2023/10/20 10:25:59;;;;;;;36.63;21.70;;;;;;;;;;5087645;28;20036;-85
2023/10/20 10:28:24;;;;;;;33.13;22.00;;;;;;;;;;5084930;28;20041;-85
2023/10/20 10:30:51;;;;;;;35.22;22.08;;;;;;;;;;5109935;22;20032;-76
2023/10/20 10:33:20;;;;;;;37.35;21.45;;;;;;;;;;5095739;28;20099;-76
2023/10/20 10:35:46;;;;;;;36.33;20.90;;;;;;;;;;5081501;28;20063;-75
2023/10/20 10:38:21;;;;;;;39.03;21.65;;;;;;;;;;5097092;28;20057;-76
2023/10/20 10:40:46;;;;;;;32.45;21.63;;;;;;;;;;5087556;28;20044;-76
2023/10/20 10:43:16;;;;;;;34.63;20.88;;;;;;;;;;5091771;28;20028;-75
2023/10/20 10:45:42;;;;;;;36.13;21.55;;;;;;;;;;5091639;28;20028;-77
2023/10/20 10:48:09;;;;;;;35.72;20.27;;;;;;;;;;5078063;28;20499;-75
2023/10/20 10:50:38;;;;;;;33.92;21.75;;;;;;;;;;5096635;28;20021;-76
2023/10/20 10:53:03;;;;;;;38.70;22.70;;;;;;;;;;5078711;28;20036;-77
2023/10/20 10:55:29;;;;;;;37.28;22.90;;;;;;;;;;5089830;28;20040;-77
2023/10/20 10:57:54;;;;;;;32.35;21.20;;;;;;;;;;5076666;28;20102;-76
2023/10/20 11:00:21;;;;;;;35.53;21.75;;;;;;;;;;5096879;28;20028;-76
2023/10/20 11:02:47;;;;;;;34.50;20.73;;;;;;;;;;5090638;28;20043;-76
2023/10/20 11:05:12;;;;;;;38.08;22.48;;;;;;;;;;5100163;28;20028;-76
2023/10/20 11:07:38;;;;;;;32.55;21.27;;;;;;;;;;5095935;28;20122;-75
2023/10/20 11:10:05;;;;;;;28.27;19.67;;;;;;;;;;5091930;28;20130;-77
2023/10/20 11:12:31;;;;;;;30.23;19.33;;;;;;;;;;5078989;28;20036;-76
2023/10/20 11:14:57;;;;;;;30.20;20.45;;;;;;;;;;5077647;28;20137;-76
2023/10/20 11:17:22;;;;;;;26.90;17.75;;;;;;;;;;5094273;28;20127;-75
2023/10/20 11:19:47;;;;;;;27.50;18.27;;;;;;;;;;5100450;28;20023;-76
2023/10/20 11:22:15;;;;;;;30.60;19.40;;;;;;;;;;5093251;28;20035;-76
2023/10/20 11:24:40;;;;;;;31.33;19.27;;;;;;;;;;5091648;28;20036;-76
2023/10/20 11:27:06;;;;;;;28.02;18.85;;;;;;;;;;5076585;28;20035;-76
2023/10/20 11:29:32;;;;;;;30.75;18.98;;;;;;;;;;5094273;28;20042;-76
2023/10/20 11:32:05;;;;;;;26.65;17.10;;;;;;;;;;5096855;28;20032;-76
2023/10/20 11:34:31;;;;;;;27.85;18.30;;;;;;;;;;5078253;28;20036;-75
2023/10/20 11:36:56;;;;;;;29.13;17.98;;;;;;;;;;5087599;28;20073;-77
2023/10/20 11:39:24;;;;;;;28.98;19.73;;;;;;;;;;5091857;28;20032;-75
2023/10/20 11:41:50;;;;;;;24.77;16.60;;;;;;;;;;5077969;28;20063;-76
2023/10/20 11:44:15;;;;;;;27.05;16.17;;;;;;;;;;5096531;28;20106;-76
2023/10/20 11:46:43;;;;;;;23.95;15.38;;;;;;;;;;5099732;28;20136;-76
2023/10/20 11:49:08;;;;;;;22.23;15.65;;;;;;;;;;5099138;28;20373;-76
2023/10/20 11:51:33;;;;;;;21.35;13.32;;;;;;;;;;5093786;28;20066;-76
2023/10/20 11:53:58;;;;;;;22.27;14.50;;;;;;;;;;5088776;28;20073;-75
2023/10/20 11:56:25;;;;;;;22.27;14.90;;;;;;;;;;5097063;28;20028;-76
2023/10/20 11:58:50;;;;;;;18.33;13.45;;;;;;;;;;5101989;28;20040;-76
2023/10/20 12:01:15;;;;;;;15.98;12.18;;;;;;;;;;5097890;28;20081;-76
2023/10/20 12:03:41;;;;;;;16.02;12.30;;;;;;;;;;5098387;28;20056;-75
2023/10/20 12:06:06;;;;;;;15.23;11.63;;;;;;;;;;5073029;28;20111;-77
2023/10/20 12:08:32;;;;;;;15.07;11.50;;;;;;;;;;5093909;28;20110;-76
2023/10/20 12:10:57;;;;;;;14.13;9.95;;;;;;;;;;5074224;28;20065;-76
2023/10/20 12:13:23;;;;;;;13.38;9.55;;;;;;;;;;5099763;28;20035;-75
2023/10/20 12:15:48;;;;;;;16.48;9.65;;;;;;;;;;5098498;28;20024;-76
2023/10/20 12:18:14;;;;;;;13.95;10.10;;;;;;;;;;5076679;28;20021;-77
2023/10/20 12:20:39;;;;;;;12.82;9.90;;;;;;;;;;5091429;28;20059;-76
2023/10/20 12:23:05;;;;;;;13.02;9.45;;;;;;;;;;5074037;28;20024;-77
2023/10/20 12:25:31;;;;;;;14.00;9.82;;;;;;;;;;5092753;28;20035;-76
2023/10/20 12:27:56;;;;;;;14.35;8.93;;;;;;;;;;5096382;28;20038;-76
2023/10/20 12:30:21;;;;;;;17.25;11.93;;;;;;;;;;5094766;28;20039;-76
2023/10/20 12:32:46;;;;;;;12.82;9.70;;;;;;;;;;5089596;28;20025;-76
2023/10/20 12:35:13;;;;;;;11.40;8.35;;;;;;;;;;5090716;28;20090;-77
2023/10/20 12:37:39;;;;;;;13.00;8.27;;;;;;;;;;5079901;28;20032;-76
2023/10/20 12:40:05;;;;;;;11.40;8.48;;;;;;;;;;5095088;28;20168;-76
2023/10/20 12:42:31;;;;;;;9.70;6.93;;;;;;;;;;5079932;28;20480;-76
2023/10/20 12:44:57;;;;;;;11.30;8.00;;;;;;;;;;5097476;28;20077;-76
2023/10/20 12:47:22;;;;;;;11.52;8.20;;;;;;;;;;5092054;28;20036;-77
2023/10/20 12:49:48;;;;;;;11.77;8.23;;;;;;;;;;5097298;28;20127;-76
2023/10/20 12:52:13;;;;;;;11.52;7.88;;;;;;;;;;5096628;28;20031;-77
2023/10/20 12:54:38;;;;;;;12.55;8.07;;;;;;;;;;5097180;28;20028;-77
2023/10/20 12:57:04;;;;;;;11.13;7.20;;;;;;;;;;5102845;28;20042;-75
2023/10/20 12:59:29;;;;;;;12.88;8.85;;;;;;;;;;5076563;28;20036;-76
2023/10/20 13:01:55;;;;;;;13.15;8.63;;;;;;;;;;5093125;28;20744;-76
2023/10/20 13:04:20;;;;;;;11.32;8.13;;;;;;;;;;5086962;28;20081;-76
2023/10/20 13:06:45;;;;;;;12.90;8.82;;;;;;;;;;5082147;28;20036;-75
2023/10/20 13:09:11;;;;;;;11.35;7.93;;;;;;;;;;5100902;28;20027;-77
2023/10/20 13:11:36;;;;;;;11.57;8.05;;;;;;;;;;5101315;28;20028;-76
2023/10/20 13:14:01;;;;;;;10.75;7.35;;;;;;;;;;5095219;28;20500;-76
2023/10/20 13:16:26;;;;;;;10.30;8.07;;;;;;;;;;5095961;28;20055;-76
2023/10/20 13:18:52;;;;;;;10.65;7.30;;;;;;;;;;5100342;28;20019;-75
2023/10/20 13:21:17;;;;;;;10.95;7.40;;;;;;;;;;5098163;28;20028;-76
2023/10/20 13:23:42;;;;;;;11.68;8.35;;;;;;;;;;5099789;28;20028;-76
2023/10/20 13:26:07;;;;;;;10.75;7.28;;;;;;;;;;5083055;28;20491;-76
2023/10/20 13:28:33;;;;;;;11.13;7.80;;;;;;;;;;5094552;28;20382;-76
2023/10/20 13:31:09;;;;;;;11.27;7.85;;;;;;;;;;5100511;28;20492;-76
2023/10/20 13:33:35;;;;;;;11.23;7.78;;;;;;;;;;5062736;28;20024;-76
2023/10/20 13:36:01;;;;;;;13.02;8.27;;;;;;;;;;5093293;28;20499;-76
2023/10/20 13:38:26;;;;;;;10.77;7.57;;;;;;;;;;5097449;28;20020;-76
2023/10/20 13:40:51;;;;;;;12.13;8.40;;;;;;;;;;5098265;28;20020;-76
2023/10/20 13:43:17;;;;;;;11.13;7.63;;;;;;;;;;5094549;28;20035;-77
2023/10/20 13:45:42;;;;;;;14.05;8.38;;;;;;;;;;5095567;28;20477;-76
2023/10/20 13:48:07;;;;;;;12.38;7.88;;;;;;;;;;5100745;28;20028;-77
2023/10/20 13:50:32;;;;;;;10.95;7.40;;;;;;;;;;5098964;28;20027;-76
2023/10/20 13:52:57;;;;;;;10.60;7.65;;;;;;;;;;5085125;28;20024;-76
2023/10/20 13:55:23;;;;;;;11.05;8.20;;;;;;;;;;5093293;28;20472;-75
2023/10/20 13:57:49;;;;;;;11.05;7.50;;;;;;;;;;5095345;28;20023;-76
2023/10/20 14:00:14;;;;;;;14.55;9.60;;;;;;;;;;5096358;28;20565;-76
2023/10/20 14:02:39;;;;;;;12.10;8.40;;;;;;;;;;5098761;28;20107;-75
2023/10/20 14:05:05;;;;;;;11.38;7.90;;;;;;;;;;5088741;28;20032;-77
2023/10/20 14:07:31;;;;;;;11.73;8.23;;;;;;;;;;5099458;28;20047;-79
2023/10/20 14:09:57;;;;;;;11.38;8.07;;;;;;;;;;5099267;28;20036;-78
2023/10/20 14:12:22;;;;;;;12.32;8.52;;;;;;;;;;5097976;28;20085;-77
2023/10/20 14:14:48;;;;;;;11.05;7.97;;;;;;;;;;5097615;28;20032;-76
2023/10/20 14:17:13;;;;;;;12.13;7.93;;;;;;;;;;5075780;28;20028;-76
2023/10/20 14:19:38;;;;;;;11.68;7.55;;;;;;;;;;5079113;28;20059;-76
2023/10/20 14:22:04;;;;;;;9.65;6.95;;;;;;;;;;5095416;28;20079;-76
2023/10/20 14:24:29;;;;;;;11.43;8.55;;;;;;;;;;5093641;28;20050;-76
2023/10/20 14:26:55;;;;;;;10.85;7.80;;;;;;;;;;5078327;28;20131;-76
2023/10/20 14:29:20;;;;;;;11.80;8.45;;;;;;;;;;5084204;28;20542;-75
2023/10/20 14:31:46;;;;;;;11.77;7.82;;;;;;;;;;5099188;28;20032;-76
2023/10/20 14:34:11;;;;;;;11.73;7.80;;;;;;;;;;5095747;28;20028;-76
2023/10/20 14:36:36;;;;;;;11.90;8.00;;;;;;;;;;5100391;28;20021;-76
2023/10/20 14:39:01;;;;;;;12.02;7.63;;;;;;;;;;5073659;28;20395;-76
2023/10/20 14:41:27;;;;;;;11.25;7.38;;;;;;;;;;5090437;28;20516;-75
2023/10/20 14:43:52;;;;;;;10.38;7.10;;;;;;;;;;5098708;28;20490;-76
2023/10/20 14:46:17;;;;;;;12.95;7.63;;;;;;;;;;5098312;28;20027;-76
2023/10/20 14:48:43;;;;;;;11.43;7.47;;;;;;;;;;5101824;28;20048;-76
2023/10/20 14:51:10;;;;;;;10.77;7.07;;;;;;;;;;5072792;28;20059;-76
2023/10/20 14:53:35;;;;;;;11.63;8.13;;;;;;;;;;5094279;28;20043;-76